Bookmark and Share
Track history (hours):
 

Manila Express

Last reported at 2014-Apr-21 09:29 UTC. Time now 2014-Apr-21 10:13 UTC.
Position N 53°32' E 009°55'.

Length 260 m; draft 10.2 m.

Type: Ship (hazmat cat A). MMSI: 477830800.

NotesDate/timePositionNaut miles runAvg speedWind from/ knotsBaromVisibWave heightAir tempDewpointWater temp
2014-Apr-21 09:29N 53°32' E 009°55'0 0.0
2014-Apr-21 08:32N 53°32' E 009°55'0 0.0
2014-Apr-21 07:32N 53°32' E 009°55'0 0.0
2014-Apr-21 06:29N 53°32' E 009°55'0 0.0
2014-Apr-21 05:32N 53°32' E 009°55'0 0.0
2014-Apr-21 04:32N 53°32' E 009°55'1 1.3
2014-Apr-21 03:33N 53°33' E 009°53'10 9.7
2014-Apr-21 02:33N 53°35' E 009°37'1414.0
2014-Apr-21 01:34N 53°47' E 009°23'1211.8
2014-Apr-21 00:33N 53°53' E 009°06'1313.3
2014-Apr-20 23:33N 53°52' E 008°44'1312.8
2014-Apr-20 22:33N 53°59' E 008°26'1212.3
2014-Apr-20 21:34N 53°59' E 008°05'8 8.3
2014-Apr-20 20:33N 53°58' E 007°51'1514.9
2014-Apr-20 19:33N 53°55' E 007°26'1514.8
2014-Apr-20 18:33N 53°51' E 007°02'1514.6
2014-Apr-20 17:33N 53°47' E 006°37'1414.4
2014-Apr-20 16:33N 53°44' E 006°14'1414.5
2014-Apr-20 15:33N 53°39' E 005°51'1514.6
2014-Apr-20 14:34N 53°34' E 005°28'1514.6
2014-Apr-20 13:34N 53°29' E 005°05'1514.5
2014-Apr-20 12:34N 53°24' E 004°42'1514.8
2014-Apr-20 11:34N 53°10' E 004°31'1514.7
2014-Apr-20 10:33N 52°58' E 004°19'1514.6
2014-Apr-20 09:33N 52°45' E 004°08'1414.4
2014-Apr-20 08:34N 52°32' E 003°56'1615.5
2014-Apr-20 07:33N 52°17' E 003°52'1515.0
2014-Apr-20 06:33N 52°02' E 003°55'1312.8
2014-Apr-20 05:33N 51°56' E 004°13'8 3.8
2014-Apr-20 03:33N 51°53' E 004°24'0 0.0
2014-Apr-20 02:32N 51°53' E 004°24'0 0.0
2014-Apr-20 01:31N 51°53' E 004°24'0 0.0
2014-Apr-20 00:31N 51°53' E 004°24'0 0.0
2014-Apr-19 23:31N 51°53' E 004°24'0 0.0
2014-Apr-19 22:31N 51°53' E 004°24'0 0.0
2014-Apr-19 21:31N 51°53' E 004°24'0 0.0
2014-Apr-19 20:31N 51°53' E 004°24'0 0.0
2014-Apr-19 19:25N 51°53' E 004°24'0 0.0
2014-Apr-19 18:31N 51°53' E 004°24'0 0.0
2014-Apr-19 17:25N 51°53' E 004°24'0 0.0
2014-Apr-19 16:28N 51°53' E 004°24'0 0.0
2014-Apr-19 15:31N 51°53' E 004°24'0 0.0
2014-Apr-19 14:31N 51°53' E 004°24'0 0.0
2014-Apr-19 13:28N 51°53' E 004°24'0 0.0
2014-Apr-19 12:28N 51°53' E 004°24'0 0.0
2014-Apr-19 11:31N 51°53' E 004°24'0 0.0
2014-Apr-19 10:31N 51°53' E 004°24'0 0.0
2014-Apr-19 09:31N 51°53' E 004°24'0 0.0
2014-Apr-19 08:28N 51°53' E 004°24'0 0.0
2014-Apr-19 07:31N 51°53' E 004°24'0 0.0
2014-Apr-19 06:31N 51°53' E 004°24'0 0.0
2014-Apr-19 05:31N 51°53' E 004°24'0 0.0
2014-Apr-19 04:31N 51°53' E 004°24'2 0.8
2014-Apr-19 02:33N 51°54' E 004°23'8 8.2
2014-Apr-19 01:33N 51°57' E 004°10'1111.2
2014-Apr-19 00:33N 52°01' E 003°53'10 9.3
2014-Apr-18 23:32N 51°59' E 003°38'6012.0
2014-Apr-18 18:34N 51°50' E 002°02'1311.9
2014-Apr-18 17:29N 51°51' E 001°41'9 9.7
2014-Apr-18 16:34N 51°45' E 001°30'1919.1
2014-Apr-18 15:34N 51°32' E 001°07'1717.0
2014-Apr-18 14:34N 51°30' E 000°40'1110.8
2014-Apr-18 13:34N 51°27' E 000°23'2 2.2
2014-Apr-18 12:33N 51°27' E 000°20'0 0.0
2014-Apr-18 11:34N 51°27' E 000°20'0 0.0
2014-Apr-18 10:34N 51°27' E 000°20'0 0.0
2014-Apr-18 09:33N 51°27' E 000°20'0 0.0
2014-Apr-18 08:34N 51°27' E 000°20'0 0.0
2014-Apr-18 07:33N 51°27' E 000°20'0 0.0
2014-Apr-18 06:34N 51°27' E 000°20'0 0.0
2014-Apr-18 05:34N 51°27' E 000°20'0 0.0
2014-Apr-18 04:33N 51°27' E 000°20'0 0.0
2014-Apr-18 03:34N 51°27' E 000°20'0 0.0
2014-Apr-18 02:33N 51°27' E 000°20'0 0.0
2014-Apr-18 01:34N 51°27' E 000°20'0 0.0
2014-Apr-18 00:33N 51°27' E 000°20'0 0.0
2014-Apr-17 23:33N 51°27' E 000°20'0 0.0
2014-Apr-17 22:34N 51°27' E 000°20'0 0.0
2014-Apr-17 21:34N 51°27' E 000°20'0 0.0
2014-Apr-17 20:34N 51°27' E 000°20'0 0.0
2014-Apr-17 19:34N 51°27' E 000°20'0 0.0
2014-Apr-17 18:34N 51°27' E 000°20'0 0.0
2014-Apr-17 17:34N 51°27' E 000°20'0 0.0
2014-Apr-17 16:34N 51°27' E 000°20'0 0.0
2014-Apr-17 15:34N 51°27' E 000°20'0 0.0
2014-Apr-17 14:34N 51°28' E 000°20'0 0.0
2014-Apr-17 13:33N 51°28' E 000°20'0 0.0
2014-Apr-17 12:33N 51°27' E 000°20'2 1.6
2014-Apr-17 11:34N 51°27' E 000°22'8 8.4
2014-Apr-17 10:33N 51°30' E 000°35'1212.2
2014-Apr-17 09:34N 51°29' E 000°54'1414.0
2014-Apr-17 08:33N 51°35' E 001°15'1515.1
2014-Apr-17 07:34N 51°46' E 001°31'1010.2
2014-Apr-17 06:33N 51°51' E 001°45'1010.1
2014-Apr-17 05:33N 51°42' E 001°50'1111.5
2014-Apr-17 04:33N 51°30' E 001°47'1212.5
2014-Apr-17 03:33N 51°18' E 001°42'1212.0
2014-Apr-17 02:33N 51°06' E 001°40'1313.0
2014-Apr-17 01:33N 50°57' E 001°26'1615.5
2014-Apr-17 00:34N 50°42' E 001°19'1717.2
2014-Apr-16 23:33N 50°30' E 000°59'1717.1
2014-Apr-16 22:34N 50°26' E 000°33'1817.9
2014-Apr-16 21:34N 50°22' E 000°06'1818.2
2014-Apr-16 20:33N 50°17' W 000°21'1919.1
2014-Apr-16 19:34N 50°11' W 000°50'1919.1
2014-Apr-16 18:34N 50°05' W 001°18'1818.3
2014-Apr-16 17:33N 49°59' W 001°45'3416.7
2014-Apr-16 15:31N 49°51' W 002°36'76015.8
2014-Apr-14 15:33N 38°16' W 009°44'1817.6
2014-Apr-14 14:33N 37°59' W 009°38'1717.6
2014-Apr-14 13:33N 37°42' W 009°33'6516.3
2014-Apr-14 09:33N 36°43' W 008°58'1717.2
2014-Apr-14 08:33N 36°37' W 008°38'1817.8
2014-Apr-14 07:34N 36°30' W 008°18'1818.0
2014-Apr-14 06:34N 36°25' W 007°56'39616.8
2014-Apr-13 07:03N 37°49' E 000°09'3118.1
2014-Apr-13 05:19N 38°16' E 000°29'2218.4
2014-Apr-13 04:07N 38°35' E 000°44'2817.8
2014-Apr-13 02:33N 38°58' E 001°03'1717.4
2014-Apr-13 01:33N 39°13' E 001°14'1717.4
2014-Apr-13 00:34N 39°27' E 001°27'1817.6
2014-Apr-12 23:33N 39°39' E 001°44'1717.5
2014-Apr-12 22:34N 39°50' E 002°02'1818.4
2014-Apr-12 21:33N 40°02' E 002°20'1716.7
2014-Apr-12 20:34N 40°13' E 002°36'1817.7
2014-Apr-12 19:34N 40°26' E 002°53'1817.5
2014-Apr-12 18:33N 40°36' E 003°11'1918.6
2014-Apr-12 17:33N 40°49' E 003°29'1817.8
2014-Apr-12 16:33N 41°01' E 003°47'2617.7
2014-Apr-12 15:04N 41°18' E 004°14'918.3
2014-Apr-12 14:33N 41°24' E 004°23'1716.9
2014-Apr-12 13:32N 41°35' E 004°41'1818.2
2014-Apr-12 12:33N 41°47' E 004°59'1817.8
2014-Apr-12 11:33N 41°59' E 005°16'1917.9
2014-Apr-12 10:30N 42°12' E 005°34'12417.9
2014-Apr-12 03:33N 43°33' E 007°43'2718.8
2014-Apr-12 02:06N 43°48' E 008°14'1019.0
2014-Apr-12 01:34N 43°56' E 008°23'1918.7
2014-Apr-12 00:33N 44°09' E 008°43'1716.9
2014-Apr-11 23:33N 44°22' E 008°57'3 3.2
2014-Apr-11 22:32N 44°24' E 008°54'0 0.0
2014-Apr-11 21:33N 44°24' E 008°54'0 0.0
2014-Apr-11 20:33N 44°24' E 008°54'0 0.0
2014-Apr-11 19:32N 44°24' E 008°54'0 0.0
2014-Apr-11 18:29N 44°24' E 008°54'0 0.0
2014-Apr-11 17:32N 44°24' E 008°54'0 0.0
2014-Apr-11 16:32N 44°24' E 008°54'0 0.0
2014-Apr-11 15:32N 44°24' E 008°54'0 0.0
2014-Apr-11 14:32N 44°24' E 008°54'0 0.0
2014-Apr-11 13:32N 44°24' E 008°54'0 0.0
2014-Apr-11 12:32N 44°24' E 008°54'0 0.0
2014-Apr-11 11:32N 44°24' E 008°54'0 0.0
2014-Apr-11 10:32N 44°24' E 008°54'0 0.0
2014-Apr-11 09:32N 44°24' E 008°54'  

Dump ship's entire track history

sailing weather and tide predictions

Manila Express — VRCX7 — position and weather